Nearby METAR Reports

 

LGBL - Nea Anchialos, Greece
Distance from station: SW 15km
Updated: 27/05/2015 21:50
Mostly cloudy
Mostly cloudy
 Wind from calm
Wind: Calm
Temperature: 17°C
Dew Point: 15°C
Humidity: 88%
Barometer: 1007 hPa
Clouds: Mostly cloudy
Visibility: 10 km
Cloud details: Partly cloudy 1219 m
Mostly cloudy 2438 m
2015/05/27 18:50 LGBL 271850Z 00000KT 9999 SCT040 BKN080 17/15 Q1007
LGSK - Skiathos Island, Greece
Distance from station: ESE 51km
Updated: 27/05/2015 20:50
NOT Current
Mostly cloudy
Mostly cloudy
 Wind from calm
Wind: Calm
Temperature: 21°C
Dew Point: 14°C
Humidity: 64%
Barometer: 1006 hPa
Clouds: Mostly cloudy
Visibility: 10 km
Cloud details: Partly cloudy 549 m
Partly cloudy 2438 m
Mostly cloudy 5486 m
2015/05/27 17:50 LGSK 271750Z 00000KT 9999 SCT018 SCT080 BKN180 21/14 Q1006
 
LGTS - Thessaloniki/Mik, Greece
Distance from station: N 135km
Updated: 27/05/2015 22:20
Mostly cloudy
Mostly cloudy
 Wind from N
Wind: N 15 km/h, Gust: 37 km/h
Temperature: 21°C
Dew Point: 9°C
Humidity: 46%
Barometer: 1008 hPa
Clouds: Mostly cloudy
Visibility: 10 km
Cloud details: Few Clouds 762 m
Partly cloudy 1067 m
Mostly cloudy 2438 m
2015/05/27 19:20 LGTS 271920Z 35008G20KT 9999 FEW025 SCT035 BKN080 21/09 Q1008 NOSIG
LGSY - Skiros, Greece
Distance from station: ESE 139km
Updated: 27/05/2015 21:50
Mostly cloudy
Mostly cloudy
 Wind from WNW
Wind: WNW 13 km/h
Temperature: 20°C
Dew Point: 16°C
Humidity: 78%
Barometer: 1005 hPa
Clouds: Mostly cloudy
Visibility: 10 km
Cloud details: Partly cloudy 610 m
Partly cloudy 2438 m
Mostly cloudy 5486 m
2015/05/27 18:50 LGSY 271850Z 30007KT 9999 SCT020 SCT080 BKN180 20/16 Q1005 BLU
 
LGKZ - Kozani (civ/Army, Greece
Distance from station: NW 144km
Updated: 27/05/2015 22:20

 Wind from varies
Wind: varies 2 km/h
Temperature: 14°C
Dew Point: 13°C
Humidity: 94%
Barometer: 1010 hPa
2015/05/27 19:20 LGKZ 271920Z AUTO VRB01KT //// // ////// 14/13 Q1010 RE//
LGEL - Elefsis (hel-Afb, Greece
Distance from station: SSE 147km
Updated: 27/05/2015 22:20
Partly cloudy
Partly cloudy
 Wind from WNW
Wind: WNW 13 km/h
Temperature: 20°C
Dew Point: 12°C
Humidity: 60%
Barometer: 1006 hPa
Clouds: Partly cloudy
Visibility: 10 km
Cloud details: Partly cloudy 914 m
Partly cloudy 2134 m
2015/05/27 19:20 LGEL 271920Z 29007KT 9999 SCT030 SCT070 20/12 Q1006
 
LGAV - Athens/Elef-Ven, Greece
Distance from station: SSE 176km
Updated: 27/05/2015 22:20
Mostly cloudy
Mostly cloudy
 Wind from NNE
Wind: NNE 13 km/h
Temperature: 19°C
Dew Point: 14°C
Humidity: 73%
Barometer: 1007 hPa
Clouds: Mostly cloudy
Visibility: 10 km
Cloud details: Few Clouds 610 m
Partly cloudy 914 m
Mostly cloudy 2134 m
2015/05/27 19:20 LGAV 271920Z 03007KT 9999 FEW020TCU SCT030 BKN070 19/14 Q1007 NOSIG
LGRX - Araxos (civ/Afb), Greece
Distance from station: SW 182km
Updated: 27/05/2015 21:50
Few Clouds
Few Clouds
 Wind from calm
Wind: Calm
Temperature: 18°C
Dew Point: 15°C
Humidity: 83%
Barometer: 1008 hPa
Clouds: Few Clouds
Visibility: 10 km
Cloud details: Few Clouds 762 m
2015/05/27 18:50 LGRX 271850Z 00000KT 9999 FEW025 18/15 Q1008
 
LGIO - Ioannina, Greece
Distance from station: WNW 187km
Updated: 27/05/2015 22:20
Light rain
Light rain
 Wind from calm
Wind: Calm
Temperature: 13°C
Dew Point: 13°C
Humidity: 100%
Barometer: 1010 hPa
Summary: Light rain
2015/05/27 19:20 LGIO 271920Z AUTO 00000KT //// -RA ////// 13/13 Q1010 RE//
LGPZ - Preveza/Aktion, Greece
Distance from station: WSW 191km
Updated: 27/05/2015 21:50
Partly cloudy
Partly cloudy
 Wind from W
Wind: W 9 km/h
Temperature: 18°C
Dew Point: 14°C
Humidity: 78%
Barometer: 1009 hPa
Clouds: Partly cloudy
Visibility: 10 km
Cloud details: Few Clouds 610 m
Partly cloudy 2438 m
2015/05/27 18:50 LGPZ 271850Z 27005KT 9999 FEW020 SCT080 18/14 Q1009
 
LGLM - Limnos Island Ar, Greece
Distance from station: ENE 209km
Updated: 27/05/2015 22:20
Partly cloudy
Partly cloudy
 Wind from calm
Wind: Calm
Temperature: 17°C
Dew Point: 16°C
Humidity: 94%
Barometer: 1007 hPa
Clouds: Partly cloudy
Visibility: 10 km
Cloud details: Few Clouds 610 m
Partly cloudy 2438 m
2015/05/27 19:20 LGLM 271920Z 00000KT 9999 FEW020 SCT080 17/16 Q1007
LGAD - Andravida (civ/A, Greece
Distance from station: SW 211km
Updated: 27/05/2015 22:20
Few Clouds
Few Clouds
 Wind from calm
Wind: Calm
Temperature: 17°C
Dew Point: 13°C
Humidity: 77%
Barometer: 1009 hPa
Clouds: Few Clouds
Visibility: 10 km
Cloud details: Few Clouds 610 m
2015/05/27 19:20 LGAD 271920Z 00000KT 9999 FEW020 17/13 Q1009
 
LGKV - Kavala/Chrisoupo, Greece
Distance from station: NE 230km
Updated: 27/05/2015 22:20
Mostly cloudy
Mostly cloudy
 Wind from NNE
Wind: NNE 7 km/h
Temperature: 19°C
Dew Point: 16°C
Humidity: 83%
Barometer: 1007 hPa
Clouds: Mostly cloudy
Visibility: 10 km
Cloud details: Few Clouds 610 m
Mostly cloudy 914 m
Mostly cloudy 2438 m
2015/05/27 19:20 LGKV 271920Z 03004KT 9999 FEW020TCU BKN030 BKN080 19/16 Q1007
LGKF - Kefallinia, Greece
Distance from station: WSW 249km
Updated: 27/05/2015 22:20

 Wind from varies
Wind: varies 2 km/h
Temperature: 16°C
Dew Point: 16°C
Humidity: 100%
Barometer: 1009 hPa
2015/05/27 19:20 LGKF 271920Z AUTO VRB01KT //// // ////// 16/16 Q1009 RE//
 
LGZA - Zakinthos Airpor, Greece
Distance from station: SW 249km
Updated: 27/05/2015 22:20
Partly cloudy
Partly cloudy
 Wind from calm
Wind: Calm
Temperature: 15°C
Dew Point: 13°C
Humidity: 88%
Barometer: 1009 hPa
Clouds: Partly cloudy
Visibility: 10 km
Cloud details: Few Clouds 762 m
Partly cloudy 2438 m
2015/05/27 19:20 LGZA 271920Z 00000KT 9999 FEW025 SCT080 15/13 Q1009
LGKL - Kalamata (hel-Af, Greece
Distance from station: SSW 261km
Updated: 27/05/2015 21:50
Few Clouds
Few Clouds
 Wind from calm
Wind: Calm
Temperature: 16°C
Dew Point: 13°C
Humidity: 83%
Barometer: 1009 hPa
Clouds: Few Clouds
Visibility: 10 km
Cloud details: Few Clouds 762 m
2015/05/27 18:50 LGKL 271850Z 00000KT 9999 FEW025 16/13 Q1009
 
LGKR - Ioannis Kapodist, Greece
Distance from station: W 261km
Updated: 27/05/2015 22:20
Mostly cloudy
Mostly cloudy
 Wind from SSE
Wind: SSE 7 km/h
Temperature: 20°C
Dew Point: 17°C
Humidity: 83%
Barometer: 1008 hPa
Clouds: Mostly cloudy
Visibility: 10 km
Cloud details: Partly cloudy 762 m
Mostly cloudy 2438 m
2015/05/27 19:20 LGKR 271920Z 15004KT 9999 SCT025 BKN080 20/17 Q1008 NOSIG
LGSO - Syros, Greece
Distance from station: SE 274km
Updated: 27/05/2015 22:20

 Wind from varies
Wind: varies 4 km/h
Temperature: 20°C
Dew Point: 16°C
Humidity: 78%
Barometer: 1007 hPa
2015/05/27 19:20 LGSO 271920Z AUTO VRB02KT //// // ////// 20/16 Q1007 RE//
 
LGMK - Mikonos Island, Greece
Distance from station: SE 296km
Updated: 27/05/2015 20:50
NOT Current
Partly cloudy
Partly cloudy
 Wind from W
Wind: W 11 km/h
Temperature: 20°C
Dew Point: 17°C
Humidity: 83%
Barometer: 1006 hPa
Clouds: Partly cloudy
Visibility: 10 km
Cloud details: Few Clouds 549 m
Partly cloudy 3048 m
2015/05/27 17:50 LGMK 271750Z 26006KT 9999 FEW018 SCT100 20/17 Q1006